Morgan, Kentucky
Current Conditions -  °F | °C
As of 2:53 PM on Friday 28 Nov 2014 (Local Time) from KLUK Reporting Station
Clear Clear  
Wind Chill: 28°   Ceiling: Unl
Heat Index: 35°   Visibility: 10mi
Dew Point: 17°   Wind: 9mph
Humidity: 48%   Direction: 190°S
Pressure: 30.27"   Gusts: NA
Location:  38.6506°N, 84.351°W
Report Text: KLUK 281953Z 19008KT 10SM CLR 02/M08 A3027 RMK AO2 SLP255 T00171083
Loading
Personal Weather Stations






























Interactive Weather Map New forecast layout! Learn more

10-Day Weather Forecast

Advertisements
Track Severe Weather on mobile